createdAt,value
2023-03-06T00:01:08.361Z,13.70
2023-03-06T00:03:36.606Z,14.90
2023-03-06T00:06:04.858Z,10.90
2023-03-06T00:08:32.927Z,14.10
2023-03-06T00:11:01.364Z,12.70
2023-03-06T00:13:33.651Z,10.70
2023-03-06T00:16:02.931Z,15.60
2023-03-06T00:18:33.436Z,15.50
2023-03-06T00:21:01.454Z,14.70
2023-03-06T00:23:29.775Z,16.30
2023-03-06T00:28:26.629Z,14.70
2023-03-06T00:30:54.621Z,14.00
2023-03-06T00:35:50.418Z,11.00
2023-03-06T00:38:18.488Z,14.70
2023-03-06T00:43:14.301Z,13.20
2023-03-06T00:45:43.132Z,10.00
2023-03-06T00:50:38.986Z,6.90
2023-03-06T00:53:07.167Z,14.20
2023-03-06T00:55:36.005Z,6.80
2023-03-06T00:58:08.067Z,7.10
2023-03-06T01:00:36.462Z,12.00
2023-03-06T01:03:04.846Z,10.50
2023-03-06T01:05:35.673Z,10.30
2023-03-06T01:08:05.834Z,9.10
2023-03-06T01:10:38.312Z,11.90
2023-03-06T01:13:06.542Z,9.60
2023-03-06T01:15:34.617Z,12.00
2023-03-06T01:18:03.857Z,6.70
2023-03-06T01:20:32.347Z,9.40
2023-03-06T01:23:01.108Z,11.20
2023-03-06T01:25:29.984Z,7.10
2023-03-06T01:28:03.180Z,7.70
2023-03-06T01:30:33.537Z,9.00
2023-03-06T01:33:04.928Z,11.70
2023-03-06T01:35:35.318Z,12.80
2023-03-06T01:38:05.128Z,7.00
2023-03-06T01:40:36.898Z,6.70
2023-03-06T01:43:32.670Z,8.60
2023-03-06T01:46:22.544Z,9.40
2023-03-06T01:49:06.015Z,8.80
2023-03-06T01:51:58.997Z,10.00
2023-03-06T01:54:42.332Z,8.50
2023-03-06T01:57:38.125Z,9.60
2023-03-06T02:00:45.347Z,10.80
2023-03-06T02:03:24.664Z,7.70
2023-03-06T02:05:53.973Z,12.90
2023-03-06T02:08:23.743Z,4.70
2023-03-06T02:11:29.603Z,8.90
2023-03-06T02:13:58.084Z,10.50
2023-03-06T02:16:30.337Z,10.70
2023-03-06T02:19:01.404Z,10.30
2023-03-06T02:21:36.834Z,9.60
2023-03-06T02:24:36.429Z,11.40
2023-03-06T02:27:06.873Z,11.50
2023-03-06T02:29:35.055Z,8.40
2023-03-06T02:32:05.347Z,10.90
2023-03-06T02:34:39.496Z,8.60
2023-03-06T02:37:10.394Z,10.80
2023-03-06T02:39:49.292Z,9.50
2023-03-06T02:42:23.775Z,11.20
2023-03-06T02:44:54.679Z,7.40
2023-03-06T02:47:22.855Z,10.40
2023-03-06T02:49:50.872Z,9.30
2023-03-06T02:52:19.353Z,5.30
2023-03-06T02:54:49.051Z,7.10
2023-03-06T02:57:17.939Z,9.40
2023-03-06T02:59:48.570Z,12.10
2023-03-06T03:02:17.038Z,10.70
2023-03-06T03:04:45.705Z,11.20
2023-03-06T03:07:14.581Z,10.30
2023-03-06T03:09:43.487Z,13.50
2023-03-06T03:12:12.085Z,12.50
2023-03-06T03:14:40.235Z,12.10
2023-03-06T03:17:09.171Z,10.30
2023-03-06T03:19:37.148Z,11.70
2023-03-06T03:22:05.841Z,9.30
2023-03-06T03:24:33.958Z,11.80
2023-03-06T03:27:02.493Z,14.10
2023-03-06T03:29:30.479Z,13.60
2023-03-06T03:31:59.603Z,12.40
2023-03-06T03:34:29.385Z,12.00
2023-03-06T03:37:00.186Z,10.80
2023-03-06T03:39:28.229Z,12.00
2023-03-06T03:41:56.428Z,13.30
2023-03-06T03:44:25.411Z,12.80
2023-03-06T03:46:53.685Z,10.90
2023-03-06T03:49:22.930Z,10.30
2023-03-06T03:51:52.134Z,8.70
2023-03-06T03:54:20.938Z,10.00
2023-03-06T03:56:49.756Z,9.00
2023-03-06T03:59:23.818Z,10.70
2023-03-06T04:02:06.512Z,10.40
2023-03-06T04:04:38.881Z,10.50
2023-03-06T04:07:07.634Z,14.20
2023-03-06T04:09:36.073Z,10.80
2023-03-06T04:12:05.598Z,6.80
2023-03-06T04:14:35.200Z,12.80
2023-03-06T04:17:04.460Z,17.30
2023-03-06T04:19:32.759Z,13.10
2023-03-06T04:22:02.117Z,11.50
2023-03-06T04:24:31.857Z,12.30
2023-03-06T04:27:00.174Z,12.20
2023-03-06T04:29:29.829Z,13.00
2023-03-06T04:31:58.225Z,11.80
2023-03-06T04:34:26.386Z,14.70
2023-03-06T04:36:54.633Z,16.40
2023-03-06T04:41:50.854Z,15.30
2023-03-06T04:44:18.879Z,12.80
2023-03-06T04:46:49.579Z,13.50
2023-03-06T04:49:17.850Z,11.30
2023-03-06T04:51:45.964Z,11.70
2023-03-06T04:54:14.645Z,15.10
2023-03-06T04:59:11.111Z,13.60
2023-03-06T05:01:39.736Z,13.20
2023-03-06T05:04:07.968Z,13.00
2023-03-06T05:06:37.200Z,14.30
2023-03-06T05:09:05.446Z,10.30
2023-03-06T05:11:34.034Z,35.80
2023-03-06T05:14:03.255Z,32.60
2023-03-06T05:16:31.306Z,52.90
2023-03-06T05:18:59.460Z,28.90
2023-03-06T05:23:55.960Z,17.30
2023-03-06T05:26:26.819Z,10.70
2023-03-06T05:28:54.860Z,11.90
2023-03-06T05:31:23.162Z,16.30
2023-03-06T05:33:51.478Z,15.60
2023-03-06T05:36:19.558Z,14.40
2023-03-06T05:38:47.531Z,16.40
2023-03-06T05:43:47.626Z,16.20
2023-03-06T05:46:15.887Z,9.00
2023-03-06T05:48:46.811Z,18.50
2023-03-06T05:51:15.237Z,13.30
2023-03-06T05:53:44.530Z,9.60
2023-03-06T05:56:14.807Z,8.30
2023-03-06T05:58:45.774Z,10.20
2023-03-06T06:01:18.409Z,16.20
2023-03-06T06:03:48.627Z,6.80
2023-03-06T06:06:17.523Z,9.00
2023-03-06T06:08:45.840Z,11.60
2023-03-06T06:11:15.407Z,13.60
2023-03-06T06:13:48.104Z,15.40
2023-03-06T06:16:16.617Z,11.10
2023-03-06T06:19:17.911Z,9.20
2023-03-06T06:21:48.605Z,12.10
2023-03-06T06:24:20.051Z,8.10
2023-03-06T06:26:59.011Z,11.40
2023-03-06T06:29:29.636Z,11.20
2023-03-06T06:32:00.617Z,10.30
2023-03-06T06:34:39.091Z,11.20
2023-03-06T06:37:11.754Z,7.30
2023-03-06T06:40:13.478Z,9.70
2023-03-06T06:42:43.043Z,11.30
2023-03-06T06:45:12.404Z,11.30
2023-03-06T06:48:00.666Z,11.30
2023-03-06T06:50:30.197Z,12.90
2023-03-06T06:52:59.924Z,12.70
2023-03-06T06:55:28.390Z,12.00
2023-03-06T06:57:56.836Z,13.80
2023-03-06T07:00:27.204Z,8.10
2023-03-06T07:02:55.360Z,8.10
2023-03-06T07:05:26.596Z,10.90
2023-03-06T07:07:55.020Z,6.30
2023-03-06T07:10:24.851Z,10.00
2023-03-06T07:12:54.117Z,7.10
2023-03-06T07:15:30.356Z,9.50
2023-03-06T07:18:01.300Z,11.30
2023-03-06T07:20:31.340Z,9.90
2023-03-06T07:22:59.709Z,11.20
2023-03-06T07:28:21.570Z,9.50
2023-03-06T07:30:54.255Z,6.30
2023-03-06T07:33:22.726Z,10.00
2023-03-06T07:35:50.926Z,7.90
2023-03-06T07:38:20.648Z,15.70
2023-03-06T07:40:53.116Z,12.50
2023-03-06T07:43:21.212Z,9.40
2023-03-06T07:46:00.373Z,16.90
2023-03-06T07:48:28.594Z,9.70
2023-03-06T07:51:09.576Z,8.10
2023-03-06T07:53:37.952Z,8.30
2023-03-06T07:56:11.131Z,9.70
2023-03-06T07:58:44.898Z,8.40
2023-03-06T08:01:19.143Z,8.00
2023-03-06T08:03:49.419Z,10.90
2023-03-06T08:06:25.955Z,11.50
2023-03-06T08:08:55.439Z,13.50
2023-03-06T08:11:29.887Z,11.80
2023-03-06T08:13:59.575Z,10.00
2023-03-06T08:16:30.420Z,10.10
2023-03-06T08:19:02.621Z,11.70
2023-03-06T08:21:32.066Z,9.40
2023-03-06T08:24:04.763Z,12.80
2023-03-06T08:26:34.612Z,8.80
2023-03-06T08:29:13.063Z,8.20
2023-03-06T08:32:00.036Z,10.70
2023-03-06T08:34:43.328Z,10.20
2023-03-06T08:37:26.843Z,7.80
2023-03-06T08:40:06.566Z,12.00
2023-03-06T08:42:35.871Z,14.40
2023-03-06T08:45:06.735Z,8.40
2023-03-06T08:47:41.464Z,14.60
2023-03-06T08:50:11.601Z,9.40
2023-03-06T08:52:41.188Z,22.00
2023-03-06T08:55:09.754Z,15.30
2023-03-06T08:57:46.656Z,15.90
2023-03-06T09:00:15.708Z,18.20
2023-03-06T09:02:46.451Z,12.70
2023-03-06T09:05:16.714Z,12.60
2023-03-06T09:07:45.824Z,21.80
2023-03-06T09:10:17.004Z,14.60
2023-03-06T09:12:54.402Z,14.30
2023-03-06T09:15:28.729Z,14.60
2023-03-06T09:17:58.814Z,14.40
2023-03-06T09:20:28.054Z,14.30
2023-03-06T09:22:58.805Z,12.00
2023-03-06T09:25:27.094Z,16.80
2023-03-06T09:28:10.078Z,13.20
2023-03-06T09:30:40.756Z,20.30
2023-03-06T09:33:10.531Z,21.20
2023-03-06T09:35:55.068Z,14.40
2023-03-06T09:38:27.620Z,14.40
2023-03-06T09:41:41.155Z,18.90
2023-03-06T09:44:23.037Z,15.00
2023-03-06T09:46:54.469Z,17.30
2023-03-06T09:50:00.923Z,16.50
2023-03-06T09:53:04.960Z,15.30
2023-03-06T09:55:37.737Z,14.10
2023-03-06T09:58:27.236Z,12.40
2023-03-06T10:01:38.081Z,16.00
2023-03-06T10:04:49.863Z,15.00
2023-03-06T10:07:33.141Z,11.90
2023-03-06T10:10:38.784Z,17.30
2023-03-06T10:13:42.760Z,17.70
2023-03-06T10:16:31.540Z,12.20
2023-03-06T10:19:04.800Z,14.00
2023-03-06T10:22:03.756Z,15.20
2023-03-06T10:24:53.105Z,15.90
2023-03-06T10:27:58.161Z,24.20
2023-03-06T10:30:42.267Z,15.00
2023-03-06T10:33:42.127Z,12.10
2023-03-06T10:36:17.577Z,17.30
2023-03-06T10:38:48.078Z,13.00
2023-03-06T10:41:32.075Z,13.30
2023-03-06T10:44:01.140Z,19.40
2023-03-06T10:46:44.546Z,16.70
2023-03-06T10:49:37.529Z,13.70
2023-03-06T10:52:21.292Z,11.30
2023-03-06T10:54:51.662Z,15.30
2023-03-06T10:57:32.532Z,12.40
2023-03-06T11:00:05.953Z,15.00
2023-03-06T11:02:40.500Z,15.00
2023-03-06T11:05:20.632Z,13.30
2023-03-06T11:08:00.923Z,16.60
2023-03-06T11:10:37.106Z,10.60
2023-03-06T11:13:22.381Z,12.30
2023-03-06T11:16:05.646Z,11.80
2023-03-06T11:18:43.552Z,16.20
2023-03-06T11:21:36.756Z,18.00
2023-03-06T11:24:19.140Z,16.10
2023-03-06T11:26:59.180Z,18.80
2023-03-06T11:29:45.138Z,18.40
2023-03-06T11:32:23.454Z,17.20
2023-03-06T11:35:06.498Z,17.60
2023-03-06T11:37:58.661Z,18.50
2023-03-06T11:40:49.317Z,18.40
2023-03-06T11:43:36.353Z,21.70
2023-03-06T11:46:17.541Z,18.40
2023-03-06T11:49:24.206Z,20.00
2023-03-06T11:52:01.329Z,20.20
2023-03-06T11:54:44.207Z,18.80
2023-03-06T11:57:42.440Z,26.50
2023-03-06T12:00:40.575Z,23.20
2023-03-06T12:03:31.662Z,19.40
2023-03-06T12:06:34.780Z,18.20
2023-03-06T12:09:33.112Z,16.60
2023-03-06T12:12:24.364Z,21.60
2023-03-06T12:15:52.612Z,15.50
2023-03-06T12:18:55.989Z,16.30
2023-03-06T12:22:08.985Z,20.40
2023-03-06T12:24:53.547Z,16.70
2023-03-06T12:27:50.252Z,13.30
2023-03-06T12:30:41.034Z,19.80
2023-03-06T12:33:31.610Z,15.30
2023-03-06T12:36:38.822Z,20.20
2023-03-06T12:39:56.356Z,14.90
2023-03-06T12:43:06.307Z,16.70
2023-03-06T12:45:38.789Z,25.40
2023-03-06T12:48:37.047Z,21.50
2023-03-06T12:51:12.940Z,19.00
2023-03-06T12:53:47.365Z,18.10
2023-03-06T12:56:17.860Z,16.00
2023-03-06T12:59:01.824Z,16.00
2023-03-06T13:01:49.313Z,14.00
2023-03-06T13:04:56.607Z,14.70
2023-03-06T13:07:44.277Z,17.40
2023-03-06T13:10:35.883Z,16.40
2023-03-06T13:13:41.158Z,20.00
2023-03-06T13:16:15.862Z,20.60
2023-03-06T13:18:44.313Z,23.40
2023-03-06T13:21:56.485Z,17.50
2023-03-06T13:24:39.770Z,16.00
2023-03-06T13:27:45.455Z,17.70
2023-03-06T13:30:38.516Z,17.90
2023-03-06T13:33:32.396Z,16.70
2023-03-06T13:36:39.811Z,18.20
2023-03-06T13:39:13.014Z,17.70
2023-03-06T13:41:59.717Z,17.80
2023-03-06T13:44:30.584Z,19.40
2023-03-06T13:47:19.226Z,16.50
2023-03-06T13:49:48.345Z,24.10
2023-03-06T13:52:53.692Z,12.50
2023-03-06T13:56:07.830Z,16.60
2023-03-06T13:59:01.301Z,20.40
2023-03-06T14:01:39.428Z,16.60
2023-03-06T14:04:41.735Z,15.20
2023-03-06T14:07:24.123Z,22.30
2023-03-06T14:10:13.206Z,13.40
2023-03-06T14:12:53.927Z,18.30
2023-03-06T14:15:50.011Z,20.30
2023-03-06T14:18:18.395Z,16.20
2023-03-06T14:21:12.960Z,15.60
2023-03-06T14:23:44.483Z,21.90
2023-03-06T14:26:24.873Z,19.90
2023-03-06T14:28:59.006Z,26.10
2023-03-06T14:31:34.088Z,20.50
2023-03-06T14:34:19.611Z,18.40
2023-03-06T14:36:51.174Z,24.30
2023-03-06T14:39:42.766Z,16.50
2023-03-06T14:42:24.565Z,21.30
2023-03-06T14:45:05.718Z,18.00
2023-03-06T14:47:36.285Z,23.20
2023-03-06T14:50:29.715Z,18.60
2023-03-06T14:53:14.497Z,29.60
2023-03-06T14:56:07.285Z,19.50
2023-03-06T15:22:50.279Z,18.80
2023-03-06T15:25:31.762Z,22.50
2023-03-06T15:28:19.862Z,21.50
2023-03-06T15:31:10.668Z,21.50
2023-03-06T15:33:39.088Z,26.70
2023-03-06T15:36:29.087Z,24.00
2023-03-06T15:39:01.923Z,24.30
2023-03-06T15:44:14.594Z,19.80
2023-03-06T15:46:42.778Z,28.30
2023-03-06T15:49:16.702Z,24.30
2023-03-06T15:51:54.686Z,23.20
2023-03-06T15:54:24.896Z,27.30
2023-03-06T15:56:53.794Z,23.20
2023-03-06T15:59:32.990Z,20.10
2023-03-06T16:02:17.181Z,21.40
2023-03-06T16:04:47.987Z,22.40
2023-03-06T16:07:17.027Z,24.20
2023-03-06T16:09:45.290Z,26.20
2023-03-06T16:12:17.787Z,25.40
2023-03-06T16:14:49.226Z,23.20
2023-03-06T16:17:17.723Z,22.10
2023-03-06T16:19:45.971Z,25.40
2023-03-06T16:22:16.830Z,33.60
2023-03-06T16:24:45.691Z,30.10
2023-03-06T16:27:22.936Z,30.00
2023-03-06T16:29:52.996Z,33.10
2023-03-06T16:32:21.291Z,31.30
2023-03-06T16:34:49.777Z,30.30
2023-03-06T16:37:18.339Z,33.10
2023-03-06T16:39:46.544Z,31.60
2023-03-06T16:42:17.060Z,33.20
2023-03-06T16:44:45.932Z,30.40
2023-03-06T16:47:14.016Z,36.00
2023-03-06T16:49:42.233Z,41.40
2023-03-06T16:52:11.019Z,59.90
2023-03-06T16:54:40.305Z,57.50
2023-03-06T16:57:15.573Z,48.10
2023-03-06T16:59:44.030Z,54.20
2023-03-06T17:02:14.394Z,56.20
2023-03-06T17:04:42.609Z,46.80
2023-03-06T17:07:10.826Z,42.50
2023-03-06T17:09:39.235Z,44.00
2023-03-06T17:12:09.615Z,39.70
2023-03-06T17:14:37.969Z,49.60
2023-03-06T17:17:06.357Z,38.10
2023-03-06T17:19:35.104Z,40.60
2023-03-06T17:22:16.279Z,36.40
2023-03-06T17:24:49.274Z,46.20
2023-03-06T17:27:21.942Z,37.70
2023-03-06T17:29:51.193Z,58.40
2023-03-06T17:32:19.387Z,55.40
2023-03-06T17:34:47.650Z,98.90
2023-03-06T17:37:15.826Z,113.80
2023-03-06T17:39:43.995Z,87.80
2023-03-06T17:42:12.266Z,83.40
2023-03-06T17:44:40.664Z,70.10
2023-03-06T17:47:10.939Z,68.70
2023-03-06T17:49:39.248Z,50.00
2023-03-06T17:52:09.074Z,49.60
2023-03-06T17:54:37.091Z,46.10
2023-03-06T17:57:09.886Z,39.80
2023-03-06T17:59:46.292Z,43.10
2023-03-06T18:02:15.449Z,40.30
2023-03-06T18:04:43.800Z,39.10
2023-03-06T18:07:13.581Z,41.30
2023-03-06T18:09:42.524Z,69.30
2023-03-06T18:12:12.124Z,152.50
2023-03-06T18:14:42.889Z,159.90
2023-03-06T18:17:10.939Z,70.60
2023-03-06T18:19:39.124Z,61.00
2023-03-06T18:22:08.531Z,60.80
2023-03-06T18:24:39.291Z,56.80
2023-03-06T18:27:07.369Z,69.70
2023-03-06T18:29:35.440Z,55.50
2023-03-06T18:32:06.728Z,57.40
2023-03-06T18:34:38.501Z,62.90
2023-03-06T18:37:06.785Z,57.70
2023-03-06T18:39:34.841Z,52.70
2023-03-06T18:42:06.711Z,63.00
2023-03-06T18:44:34.913Z,81.40
2023-03-06T18:47:04.850Z,98.10
2023-03-06T18:49:32.952Z,95.70
2023-03-06T18:52:01.202Z,79.80
2023-03-06T18:54:29.815Z,77.60
2023-03-06T18:56:58.534Z,80.50
2023-03-06T18:59:30.111Z,75.00
2023-03-06T19:01:59.077Z,67.30
2023-03-06T19:04:27.728Z,70.50
2023-03-06T19:06:56.602Z,78.00
2023-03-06T19:09:25.712Z,72.20
2023-03-06T19:11:54.967Z,74.70
2023-03-06T19:14:24.624Z,78.70
2023-03-06T19:16:53.027Z,68.10
2023-03-06T19:19:25.701Z,76.30
2023-03-06T19:21:57.566Z,70.30
2023-03-06T19:24:30.832Z,69.70
2023-03-06T19:26:59.299Z,71.90
2023-03-06T19:29:28.079Z,71.30
2023-03-06T19:31:59.062Z,60.10
2023-03-06T19:34:34.965Z,75.10
2023-03-06T19:37:03.987Z,66.80
2023-03-06T19:39:32.237Z,58.50
2023-03-06T19:42:00.449Z,69.40
2023-03-06T19:44:28.814Z,70.00
2023-03-06T19:46:57.251Z,68.10
2023-03-06T19:49:27.947Z,67.10
2023-03-06T19:51:56.204Z,60.40
2023-03-06T19:54:26.312Z,91.60
2023-03-06T19:56:54.411Z,90.20
2023-03-06T19:59:22.459Z,82.70
2023-03-06T20:01:50.621Z,75.10
2023-03-06T20:04:19.067Z,72.10
2023-03-06T20:06:50.114Z,66.60
2023-03-06T20:09:19.013Z,80.80
2023-03-06T20:11:49.053Z,83.30
2023-03-06T20:14:18.580Z,84.00
2023-03-06T20:16:47.023Z,93.10
2023-03-06T20:19:15.544Z,98.40
2023-03-06T20:21:48.024Z,127.10
2023-03-06T20:24:18.310Z,119.40
2023-03-06T20:26:49.209Z,81.60
2023-03-06T20:29:18.028Z,69.40
2023-03-06T20:31:46.142Z,65.30
2023-03-06T20:34:14.385Z,54.90
2023-03-06T20:36:42.392Z,53.90
2023-03-06T20:39:17.181Z,54.30
2023-03-06T20:41:46.265Z,55.30
2023-03-06T20:44:19.437Z,49.70
2023-03-06T20:46:47.617Z,45.70
2023-03-06T20:49:15.881Z,49.70
2023-03-06T20:51:47.019Z,42.90
2023-03-06T20:54:16.489Z,49.20
2023-03-06T20:56:48.700Z,48.70
2023-03-06T20:59:19.762Z,56.10
2023-03-06T21:01:48.563Z,66.30
2023-03-06T21:04:16.889Z,64.90
2023-03-06T21:06:45.849Z,69.90
2023-03-06T21:09:16.852Z,61.60
2023-03-06T21:11:45.515Z,63.00
2023-03-06T21:14:14.658Z,59.70
2023-03-06T21:16:45.200Z,47.90
2023-03-06T21:19:14.614Z,43.10
2023-03-06T21:21:42.834Z,44.20
2023-03-06T21:24:10.884Z,43.40
2023-03-06T21:26:39.246Z,34.70
2023-03-06T21:29:07.895Z,48.30
2023-03-06T21:31:36.224Z,43.00
2023-03-06T21:34:05.864Z,38.70
2023-03-06T21:36:34.100Z,36.30
2023-03-06T21:39:05.618Z,33.00
2023-03-06T21:41:35.177Z,34.70
2023-03-06T21:44:05.591Z,40.60
2023-03-06T21:46:35.096Z,33.70
2023-03-06T21:49:05.833Z,33.10
2023-03-06T21:51:34.739Z,30.70
2023-03-06T21:54:05.038Z,31.10
2023-03-06T21:56:35.633Z,29.10
2023-03-06T21:59:04.711Z,29.50
2023-03-06T22:01:32.861Z,27.50
2023-03-06T22:04:02.372Z,24.50
2023-03-06T22:06:32.524Z,23.30
2023-03-06T22:09:01.090Z,23.50
2023-03-06T22:11:30.989Z,25.80
2023-03-06T22:13:59.638Z,26.30
2023-03-06T22:16:28.323Z,25.70
2023-03-06T22:18:59.631Z,26.50
2023-03-06T22:21:27.700Z,23.80
2023-03-06T22:23:58.047Z,24.80
2023-03-06T22:26:28.413Z,24.50
2023-03-06T22:28:56.722Z,23.70
2023-03-06T22:31:28.943Z,26.40
2023-03-06T22:34:01.131Z,23.70
2023-03-06T22:36:31.384Z,26.70
2023-03-06T22:39:04.081Z,26.90
2023-03-06T22:41:33.080Z,24.30
2023-03-06T22:44:03.554Z,27.30
2023-03-06T22:46:32.422Z,19.60
2023-03-06T22:49:01.540Z,24.00
2023-03-06T22:51:31.850Z,28.80
2023-03-06T22:54:05.231Z,23.10
2023-03-06T22:56:33.633Z,23.90
2023-03-06T22:59:02.111Z,26.80
2023-03-06T23:01:33.669Z,23.40
2023-03-06T23:04:07.765Z,28.70
2023-03-06T23:06:40.678Z,26.30
2023-03-06T23:09:20.014Z,29.50
2023-03-06T23:12:08.464Z,31.00
2023-03-06T23:14:55.035Z,28.80
2023-03-06T23:17:41.205Z,27.70
2023-03-06T23:20:29.429Z,27.70
2023-03-06T23:23:23.329Z,29.30
2023-03-06T23:25:52.406Z,31.40
2023-03-06T23:28:20.622Z,25.10
2023-03-06T23:30:48.623Z,31.40
2023-03-06T23:33:17.120Z,34.10
2023-03-06T23:35:46.108Z,30.40
2023-03-06T23:38:14.190Z,29.00
2023-03-06T23:40:43.508Z,33.90
2023-03-06T23:43:11.549Z,29.40
2023-03-06T23:45:41.048Z,27.90
2023-03-06T23:48:10.305Z,36.50
2023-03-06T23:50:40.554Z,31.40
2023-03-06T23:53:08.561Z,30.20
2023-03-06T23:58:11.254Z,33.80
